createdAt,value
2023-05-10T00:00:05.667Z,26.80
2023-05-10T00:02:39.787Z,26.80
2023-05-10T00:05:06.775Z,26.79
2023-05-10T00:07:33.829Z,26.81
2023-05-10T00:10:00.224Z,26.81
2023-05-10T00:12:26.586Z,26.80
2023-05-10T00:14:52.949Z,26.81
2023-05-10T00:17:19.310Z,26.81
2023-05-10T00:19:45.670Z,26.81
2023-05-10T00:22:12.020Z,26.81
2023-05-10T00:24:38.386Z,26.80
2023-05-10T00:27:04.963Z,26.79
2023-05-10T00:29:32.646Z,26.80
2023-05-10T00:31:59.058Z,26.78
2023-05-10T00:34:25.720Z,26.79
2023-05-10T00:36:52.100Z,26.79
2023-05-10T00:39:18.472Z,26.81
2023-05-10T00:41:44.869Z,26.81
2023-05-10T00:44:11.346Z,26.81
2023-05-10T00:46:37.833Z,26.81
2023-05-10T00:49:05.365Z,26.76
2023-05-10T00:51:32.222Z,26.69
2023-05-10T00:53:59.365Z,26.61
2023-05-10T00:56:26.597Z,26.54
2023-05-10T00:58:53.077Z,26.46
2023-05-10T01:01:20.466Z,26.40
2023-05-10T01:03:47.879Z,26.31
2023-05-10T01:06:15.650Z,26.25
2023-05-10T01:08:42.134Z,26.18
2023-05-10T01:11:08.593Z,26.13
2023-05-10T01:13:40.231Z,26.05
2023-05-10T01:16:07.751Z,26.00
2023-05-10T01:18:37.366Z,25.93
2023-05-10T01:21:20.079Z,25.89
2023-05-10T01:23:59.636Z,25.81
2023-05-10T01:27:01.145Z,25.76
2023-05-10T01:30:22.007Z,25.68
2023-05-10T01:33:26.078Z,25.62
2023-05-10T01:36:11.411Z,25.55
2023-05-10T01:38:43.993Z,25.52
2023-05-10T01:41:10.303Z,25.47
2023-05-10T01:44:04.803Z,25.43
2023-05-10T01:46:38.092Z,25.39
2023-05-10T01:49:12.780Z,25.37
2023-05-10T01:51:45.577Z,25.33
2023-05-10T01:54:13.944Z,25.29
2023-05-10T01:56:43.187Z,25.27
2023-05-10T01:59:16.594Z,25.23
2023-05-10T02:01:44.104Z,25.20
2023-05-10T02:04:14.350Z,25.18
2023-05-10T02:06:42.465Z,25.16
2023-05-10T02:09:11.598Z,25.15
2023-05-10T02:11:44.902Z,25.10
2023-05-10T02:14:13.097Z,25.09
2023-05-10T02:16:41.397Z,25.08
2023-05-10T02:19:09.661Z,25.06
2023-05-10T02:21:37.173Z,25.04
2023-05-10T02:24:05.447Z,25.03
2023-05-10T02:26:34.864Z,25.00
2023-05-10T02:29:04.219Z,24.98
2023-05-10T02:31:33.665Z,24.97
2023-05-10T02:34:01.474Z,24.94
2023-05-10T02:36:28.668Z,24.92
2023-05-10T02:38:55.970Z,24.89
2023-05-10T02:41:25.763Z,24.87
2023-05-10T02:43:55.856Z,24.86
2023-05-10T02:46:22.422Z,24.85
2023-05-10T02:48:48.917Z,24.83
2023-05-10T02:51:18.514Z,24.80
2023-05-10T02:53:46.752Z,24.78
2023-05-10T02:56:20.991Z,24.76
2023-05-10T02:58:47.892Z,24.75
2023-05-10T03:01:14.399Z,24.73
2023-05-10T03:03:40.800Z,24.70
2023-05-10T03:06:07.614Z,24.69
2023-05-10T03:08:34.762Z,24.69
2023-05-10T03:11:09.127Z,24.66
2023-05-10T03:14:00.834Z,24.64
2023-05-10T03:16:55.600Z,24.65
2023-05-10T03:19:53.505Z,24.67
2023-05-10T03:22:44.544Z,24.70
2023-05-10T03:25:12.484Z,24.72
2023-05-10T03:27:42.908Z,24.75
2023-05-10T03:30:12.751Z,24.79
2023-05-10T03:32:39.620Z,24.83
2023-05-10T03:35:14.200Z,24.87
2023-05-10T03:37:40.977Z,24.92
2023-05-10T03:40:08.269Z,24.96
2023-05-10T03:42:37.339Z,25.02
2023-05-10T03:45:03.823Z,25.05
2023-05-10T03:47:30.700Z,25.08
2023-05-10T03:49:57.962Z,25.09
2023-05-10T03:52:24.333Z,25.12
2023-05-10T03:54:50.720Z,25.13
2023-05-10T03:57:17.145Z,25.15
2023-05-10T03:59:43.523Z,25.17
2023-05-10T04:02:09.968Z,25.17
2023-05-10T04:04:36.704Z,25.18
2023-05-10T04:07:03.881Z,25.19
2023-05-10T04:09:30.464Z,25.21
2023-05-10T04:11:56.879Z,25.21
2023-05-10T04:14:23.256Z,25.20
2023-05-10T04:16:49.665Z,25.21
2023-05-10T04:19:16.038Z,25.23
2023-05-10T04:21:42.422Z,25.23
2023-05-10T04:24:08.807Z,25.23
2023-05-10T04:26:35.186Z,25.23
2023-05-10T04:29:01.521Z,25.22
2023-05-10T04:31:28.778Z,25.21
2023-05-10T04:33:55.275Z,25.19
2023-05-10T04:36:21.651Z,25.18
2023-05-10T04:38:48.125Z,25.19
2023-05-10T04:41:14.482Z,25.20
2023-05-10T04:43:40.893Z,25.20
2023-05-10T04:46:08.213Z,25.21
2023-05-10T04:48:34.695Z,25.24
2023-05-10T04:51:01.086Z,25.25
2023-05-10T04:53:27.638Z,25.28
2023-05-10T04:55:54.039Z,25.34
2023-05-10T04:58:20.550Z,25.34
2023-05-10T05:00:47.035Z,25.38
2023-05-10T05:03:13.446Z,25.39
2023-05-10T05:05:39.927Z,25.39
2023-05-10T05:08:06.279Z,25.41
2023-05-10T05:10:32.852Z,25.43
2023-05-10T05:12:59.274Z,25.43
2023-05-10T05:15:25.678Z,25.43
2023-05-10T05:17:52.448Z,25.43
2023-05-10T05:20:19.989Z,25.43
2023-05-10T05:22:46.381Z,25.43
2023-05-10T05:25:13.069Z,25.44
2023-05-10T05:27:39.595Z,25.43
2023-05-10T05:30:06.718Z,25.42
2023-05-10T05:32:33.121Z,25.42
2023-05-10T05:34:59.581Z,25.41
2023-05-10T05:37:26.242Z,25.40
2023-05-10T05:39:52.697Z,25.38
2023-05-10T05:42:19.709Z,25.39
2023-05-10T05:44:46.520Z,25.37
2023-05-10T05:47:13.006Z,25.37
2023-05-10T05:49:39.440Z,25.38
2023-05-10T05:52:06.038Z,25.37
2023-05-10T05:54:32.594Z,25.38
2023-05-10T05:57:01.159Z,25.38
2023-05-10T05:59:28.548Z,25.38
2023-05-10T06:01:55.416Z,25.38
2023-05-10T06:04:21.823Z,25.38
2023-05-10T06:06:48.312Z,25.37
2023-05-10T06:09:14.764Z,25.38
2023-05-10T06:11:41.123Z,25.37
2023-05-10T06:14:10.218Z,25.36
2023-05-10T06:16:36.593Z,25.36
2023-05-10T06:19:03.756Z,25.35
2023-05-10T06:21:30.882Z,25.34
2023-05-10T06:23:57.375Z,25.33
2023-05-10T06:26:23.892Z,25.32
2023-05-10T06:28:50.331Z,25.31
2023-05-10T06:31:17.071Z,25.29
2023-05-10T06:33:43.446Z,25.27
2023-05-10T06:36:09.884Z,25.27
2023-05-10T06:38:36.236Z,25.26
2023-05-10T06:41:02.589Z,25.26
2023-05-10T06:43:29.634Z,25.27
2023-05-10T06:45:56.154Z,25.28
2023-05-10T06:48:22.770Z,25.27
2023-05-10T06:50:49.150Z,25.27
2023-05-10T06:53:16.039Z,25.27
2023-05-10T06:55:42.498Z,25.27
2023-05-10T06:58:08.870Z,25.27
2023-05-10T07:00:35.573Z,25.26
2023-05-10T07:03:01.994Z,25.28
2023-05-10T07:05:28.875Z,25.28
2023-05-10T07:07:55.452Z,25.25
2023-05-10T07:10:21.834Z,25.26
2023-05-10T07:12:48.323Z,25.24
2023-05-10T07:15:14.865Z,25.25
2023-05-10T07:17:43.259Z,25.25
2023-05-10T07:20:11.618Z,25.24
2023-05-10T07:22:38.174Z,25.23
2023-05-10T07:25:04.833Z,25.20
2023-05-10T07:27:31.276Z,25.20
2023-05-10T07:29:57.616Z,25.20
2023-05-10T07:32:24.153Z,25.21
2023-05-10T07:34:50.607Z,25.21
2023-05-10T07:37:17.093Z,25.20
2023-05-10T07:39:43.528Z,25.21
2023-05-10T07:42:10.295Z,25.20
2023-05-10T07:44:36.655Z,25.20
2023-05-10T07:47:03.049Z,25.20
2023-05-10T07:49:29.562Z,25.20
2023-05-10T07:51:55.957Z,25.20
2023-05-10T07:54:22.458Z,25.20
2023-05-10T07:56:49.151Z,25.19
2023-05-10T07:59:17.957Z,25.21
2023-05-10T08:01:44.363Z,25.20
2023-05-10T08:04:10.798Z,25.19
2023-05-10T08:06:37.189Z,25.18
2023-05-10T08:09:03.625Z,25.18
2023-05-10T08:11:29.990Z,25.18
2023-05-10T08:13:56.461Z,25.17
2023-05-10T08:16:23.114Z,25.17
2023-05-10T08:18:51.518Z,25.15
2023-05-10T08:21:18.215Z,25.13
2023-05-10T08:23:45.106Z,25.13
2023-05-10T08:26:12.005Z,25.11
2023-05-10T08:28:38.471Z,25.10
2023-05-10T08:31:05.844Z,25.08
2023-05-10T08:33:32.257Z,25.06
2023-05-10T08:35:58.629Z,25.05
2023-05-10T08:38:25.651Z,25.05
2023-05-10T08:40:57.409Z,25.08
2023-05-10T08:43:27.306Z,25.08
2023-05-10T08:45:54.763Z,25.09
2023-05-10T08:48:24.350Z,25.09
2023-05-10T08:50:54.590Z,25.10
2023-05-10T08:53:22.405Z,25.10
2023-05-10T08:55:48.917Z,25.11
2023-05-10T08:58:15.410Z,25.11
2023-05-10T09:00:41.871Z,25.11
2023-05-10T09:03:08.486Z,25.12
2023-05-10T09:05:36.850Z,25.13
2023-05-10T09:08:03.225Z,25.13
2023-05-10T09:10:31.521Z,25.13
2023-05-10T09:12:59.540Z,25.13
2023-05-10T09:15:26.615Z,25.12
2023-05-10T09:17:53.343Z,25.11
2023-05-10T09:20:19.888Z,25.12
2023-05-10T09:22:46.249Z,25.20
2023-05-10T09:25:14.971Z,25.21
2023-05-10T09:28:15.498Z,25.20
2023-05-10T09:30:43.787Z,25.26
2023-05-10T10:20:16.515Z,28.80
2023-05-10T10:22:44.630Z,28.81
2023-05-10T10:25:12.720Z,28.63
2023-05-10T10:27:59.653Z,28.44
2023-05-10T10:30:34.991Z,28.26
2023-05-10T10:33:13.221Z,28.16
2023-05-10T10:35:47.829Z,28.09
2023-05-10T10:38:14.797Z,28.05
2023-05-10T10:40:41.585Z,28.07
2023-05-10T10:43:28.745Z,27.64
2023-05-10T10:46:18.574Z,27.38
2023-05-10T10:48:50.725Z,27.39
2023-05-10T10:51:17.149Z,27.61
2023-05-10T10:53:44.348Z,27.74
2023-05-10T10:56:14.595Z,27.80
2023-05-10T10:58:41.528Z,27.81
2023-05-10T11:01:20.392Z,27.81
2023-05-10T11:04:19.276Z,27.76
2023-05-10T11:06:45.771Z,27.74
2023-05-10T11:09:13.210Z,27.71
2023-05-10T11:11:53.413Z,27.67
2023-05-10T11:14:26.058Z,27.70
2023-05-10T11:16:52.718Z,27.78
2023-05-10T11:19:20.972Z,27.80
2023-05-10T11:22:17.811Z,27.81
2023-05-10T11:24:58.563Z,27.78
2023-05-10T11:27:25.397Z,27.76
2023-05-10T11:29:54.742Z,27.76
2023-05-10T11:32:21.858Z,27.76
2023-05-10T11:34:48.963Z,27.73
2023-05-10T11:37:15.437Z,27.70
2023-05-10T11:39:48.254Z,27.69
2023-05-10T11:42:14.638Z,27.67
2023-05-10T11:44:41.922Z,27.67
2023-05-10T11:47:08.342Z,27.68
2023-05-10T11:49:34.715Z,27.67
2023-05-10T11:52:08.268Z,27.66
2023-05-10T11:54:35.963Z,27.67
2023-05-10T11:57:02.438Z,27.64
2023-05-10T11:59:28.820Z,27.61
2023-05-10T12:01:55.410Z,27.59
2023-05-10T12:04:22.512Z,27.57
2023-05-10T12:06:49.154Z,27.57
2023-05-10T12:09:15.690Z,27.55
2023-05-10T12:11:44.376Z,27.56
2023-05-10T12:14:11.987Z,27.58
2023-05-10T12:16:38.510Z,27.61
2023-05-10T12:19:06.337Z,27.61
2023-05-10T12:21:33.593Z,27.61
2023-05-10T12:24:02.367Z,27.65
2023-05-10T12:26:29.684Z,27.67
2023-05-10T12:29:12.236Z,27.67
2023-05-10T12:31:56.566Z,27.67
2023-05-10T12:34:37.069Z,27.67
2023-05-10T12:37:04.459Z,27.67
2023-05-10T12:39:42.034Z,27.69
2023-05-10T12:42:08.690Z,27.68
2023-05-10T12:44:35.039Z,27.67
2023-05-10T12:47:01.387Z,27.68
2023-05-10T12:49:27.864Z,27.67
2023-05-10T12:51:54.262Z,27.66
2023-05-10T12:54:20.624Z,27.68
2023-05-10T12:56:47.026Z,27.70
2023-05-10T12:59:13.367Z,27.71
2023-05-10T13:01:39.870Z,27.71
2023-05-10T13:04:06.350Z,27.72
2023-05-10T13:06:32.924Z,27.71
2023-05-10T13:08:59.332Z,27.68
2023-05-10T13:11:25.778Z,27.66
2023-05-10T13:13:52.391Z,27.61
2023-05-10T13:16:18.778Z,27.57
2023-05-10T13:18:45.290Z,27.56
2023-05-10T13:21:12.173Z,27.54
2023-05-10T13:23:38.555Z,27.54
2023-05-10T13:26:04.924Z,27.55
2023-05-10T13:28:31.292Z,27.52
2023-05-10T13:30:57.694Z,27.53
2023-05-10T13:33:24.203Z,27.53
2023-05-10T13:35:50.696Z,27.53
2023-05-10T13:38:17.062Z,27.52
2023-05-10T13:40:43.427Z,27.49
2023-05-10T13:43:09.774Z,27.47
2023-05-10T13:45:36.605Z,27.46
2023-05-10T13:48:03.494Z,27.46
2023-05-10T13:50:29.918Z,27.44
2023-05-10T13:52:56.381Z,27.41
2023-05-10T13:55:22.790Z,27.40
2023-05-10T13:57:49.355Z,27.35
2023-05-10T14:00:16.072Z,27.27
2023-05-10T14:02:42.509Z,27.19
2023-05-10T14:05:09.037Z,27.13
2023-05-10T14:07:35.413Z,27.12
2023-05-10T14:10:02.045Z,27.12
2023-05-10T14:12:28.525Z,27.10
2023-05-10T14:14:54.903Z,27.10
2023-05-10T14:17:21.280Z,27.08
2023-05-10T14:19:47.656Z,27.10
2023-05-10T14:22:14.134Z,27.11
2023-05-10T14:24:40.534Z,27.11
2023-05-10T14:27:06.916Z,27.13
2023-05-10T14:29:33.761Z,27.14
2023-05-10T14:32:00.162Z,27.15
2023-05-10T14:34:26.545Z,27.15
2023-05-10T14:36:52.925Z,27.14
2023-05-10T14:39:19.392Z,27.15
2023-05-10T14:41:46.559Z,27.14
2023-05-10T14:44:12.965Z,27.14
2023-05-10T14:46:40.325Z,27.17
2023-05-10T14:49:06.684Z,27.17
2023-05-10T14:51:33.233Z,27.17
2023-05-10T14:53:59.963Z,27.16
2023-05-10T14:56:27.010Z,27.17
2023-05-10T14:58:53.411Z,27.17
2023-05-10T15:01:20.487Z,27.14
2023-05-10T15:03:47.373Z,27.13
2023-05-10T15:06:16.743Z,27.14
2023-05-10T15:08:43.272Z,27.16
2023-05-10T15:11:09.753Z,27.15
2023-05-10T15:13:37.542Z,27.16
2023-05-10T15:16:03.976Z,27.19
2023-05-10T15:18:30.359Z,27.23
2023-05-10T15:20:56.743Z,27.29
2023-05-10T15:23:23.095Z,27.34
2023-05-10T15:25:51.295Z,27.37
2023-05-10T15:28:17.681Z,27.40
2023-05-10T15:30:44.034Z,27.38
2023-05-10T15:33:13.470Z,27.42
2023-05-10T15:35:40.507Z,27.43
2023-05-10T15:38:08.203Z,27.45
2023-05-10T15:40:34.649Z,27.45
2023-05-10T15:43:01.006Z,27.45
2023-05-10T15:45:27.514Z,27.42
2023-05-10T15:47:53.928Z,27.43
2023-05-10T15:50:20.306Z,27.43
2023-05-10T15:52:46.716Z,27.44
2023-05-10T15:55:13.380Z,27.46
2023-05-10T15:57:41.326Z,27.47
2023-05-10T16:00:09.342Z,27.47
2023-05-10T16:02:39.987Z,27.46
2023-05-10T16:05:06.534Z,27.45
2023-05-10T16:07:34.105Z,27.42
2023-05-10T16:10:03.902Z,27.38
2023-05-10T16:12:31.294Z,27.36
2023-05-10T16:14:57.650Z,27.35
2023-05-10T16:17:24.073Z,27.35
2023-05-10T16:19:50.553Z,27.32
2023-05-10T16:22:16.948Z,27.31
2023-05-10T16:24:43.485Z,27.32
2023-05-10T16:27:09.941Z,27.30
2023-05-10T16:29:36.509Z,27.28
2023-05-10T16:32:02.869Z,27.26
2023-05-10T16:34:29.264Z,27.25
2023-05-10T16:36:55.664Z,27.24
2023-05-10T16:39:22.020Z,27.23
2023-05-10T16:41:48.374Z,27.26
2023-05-10T16:44:14.774Z,27.28
2023-05-10T16:46:41.345Z,27.30
2023-05-10T16:49:08.883Z,27.35
2023-05-10T16:51:35.301Z,27.40
2023-05-10T16:54:02.199Z,27.42
2023-05-10T16:56:28.650Z,27.46
2023-05-10T16:58:55.027Z,27.47
2023-05-10T17:01:22.876Z,27.47
2023-05-10T17:03:50.426Z,27.48
2023-05-10T17:06:16.829Z,27.49
2023-05-10T17:08:43.238Z,27.49
2023-05-10T17:11:09.633Z,27.47
2023-05-10T17:13:36.072Z,27.50
2023-05-10T17:16:03.829Z,27.51
2023-05-10T17:18:30.771Z,27.50
2023-05-10T17:20:57.185Z,27.48
2023-05-10T17:23:23.578Z,27.45
2023-05-10T17:25:50.007Z,27.43
2023-05-10T17:28:16.487Z,27.45
2023-05-10T17:30:42.956Z,27.43
2023-05-10T17:33:09.354Z,27.47
2023-05-10T17:35:35.795Z,27.47
2023-05-10T17:38:02.591Z,27.44
2023-05-10T17:40:29.280Z,27.42
2023-05-10T17:42:55.835Z,27.43
2023-05-10T17:45:22.827Z,27.43
2023-05-10T17:47:49.216Z,27.41
2023-05-10T17:50:15.670Z,27.40
2023-05-10T17:52:42.044Z,27.39
2023-05-10T17:55:08.724Z,27.40
2023-05-10T17:57:37.879Z,27.38
2023-05-10T18:00:06.433Z,27.38
2023-05-10T18:02:32.854Z,27.38
2023-05-10T18:05:01.260Z,27.39
2023-05-10T18:07:29.825Z,27.35
2023-05-10T18:09:57.265Z,27.29
2023-05-10T18:12:24.295Z,27.27
2023-05-10T18:14:51.157Z,27.25
2023-05-10T18:17:17.904Z,27.23
2023-05-10T18:19:44.268Z,27.21
2023-05-10T18:22:10.976Z,27.20
2023-05-10T18:24:39.491Z,27.18
2023-05-10T18:27:11.226Z,27.20
2023-05-10T18:29:37.895Z,27.19
2023-05-10T18:32:04.622Z,27.18
2023-05-10T18:34:31.016Z,27.17
2023-05-10T18:36:57.612Z,27.18
2023-05-10T18:39:24.320Z,27.17
2023-05-10T18:41:52.599Z,27.16
2023-05-10T18:44:19.110Z,27.16
2023-05-10T18:46:46.150Z,27.14
2023-05-10T18:49:12.779Z,27.13
2023-05-10T18:51:39.295Z,27.12
2023-05-10T18:54:05.672Z,27.11
2023-05-10T18:56:32.034Z,27.10
2023-05-10T18:58:58.444Z,27.12
2023-05-10T19:01:24.865Z,27.10
2023-05-10T19:03:51.240Z,27.08
2023-05-10T19:06:17.680Z,27.07
2023-05-10T19:08:44.034Z,27.02
2023-05-10T19:11:10.443Z,26.99
2023-05-10T19:13:37.009Z,26.97
2023-05-10T19:16:05.581Z,26.97
2023-05-10T19:18:34.079Z,26.95
2023-05-10T19:21:04.424Z,26.94
2023-05-10T19:23:34.925Z,26.95
2023-05-10T19:26:01.450Z,26.93
2023-05-10T19:28:28.023Z,26.95
2023-05-10T19:30:54.596Z,26.94
2023-05-10T19:33:21.109Z,26.92
2023-05-10T19:35:50.160Z,26.91
2023-05-10T19:38:17.013Z,26.86
2023-05-10T19:40:45.077Z,26.85
2023-05-10T19:43:11.566Z,26.82
2023-05-10T19:45:38.880Z,26.81
2023-05-10T19:48:06.009Z,26.80
2023-05-10T19:50:32.434Z,26.81
2023-05-10T19:52:59.229Z,26.82
2023-05-10T19:55:30.793Z,26.82
2023-05-10T19:57:58.204Z,26.84
2023-05-10T20:00:25.051Z,26.87
2023-05-10T20:02:51.461Z,26.88
2023-05-10T20:05:18.091Z,26.91
2023-05-10T20:07:45.073Z,26.91
2023-05-10T20:10:11.689Z,26.94
2023-05-10T20:12:38.145Z,26.96
2023-05-10T20:15:07.410Z,26.96
2023-05-10T20:17:35.283Z,26.99
2023-05-10T20:20:01.741Z,27.00
2023-05-10T20:22:28.086Z,27.02
2023-05-10T20:24:55.845Z,27.07
2023-05-10T20:27:22.607Z,27.10
2023-05-10T20:29:48.996Z,27.12
2023-05-10T20:32:15.381Z,27.14
2023-05-10T20:34:41.752Z,27.18
2023-05-10T20:37:08.189Z,27.17
2023-05-10T20:39:34.637Z,27.21
2023-05-10T20:42:01.036Z,27.24
2023-05-10T20:44:27.946Z,27.26
2023-05-10T20:46:54.304Z,27.26
2023-05-10T20:49:20.829Z,27.27
2023-05-10T20:51:47.363Z,27.29
2023-05-10T20:54:14.034Z,27.32
2023-05-10T20:56:40.497Z,27.33
2023-05-10T20:59:06.863Z,27.36
2023-05-10T21:01:33.809Z,27.37
2023-05-10T21:04:00.195Z,27.38
2023-05-10T21:06:26.551Z,27.39
2023-05-10T21:08:52.958Z,27.40
2023-05-10T21:11:19.323Z,27.42
2023-05-10T21:13:45.686Z,27.44
2023-05-10T21:16:12.242Z,27.46
2023-05-10T21:18:38.694Z,27.47
2023-05-10T21:21:05.142Z,27.49
2023-05-10T21:23:33.808Z,27.49
2023-05-10T21:26:02.899Z,27.51
2023-05-10T21:28:29.377Z,27.50
2023-05-10T21:30:55.778Z,27.49
2023-05-10T21:33:22.318Z,27.50
2023-05-10T21:35:48.764Z,27.50
2023-05-10T21:38:15.548Z,27.49
2023-05-10T21:40:41.973Z,27.48
2023-05-10T21:43:08.406Z,27.49
2023-05-10T21:45:39.304Z,27.48
2023-05-10T21:48:05.759Z,27.47
2023-05-10T21:50:32.232Z,27.47
2023-05-10T21:52:59.515Z,27.47
2023-05-10T21:55:26.035Z,27.45
2023-05-10T21:57:52.501Z,27.44
2023-05-10T22:00:19.707Z,27.41
2023-05-10T22:02:46.788Z,27.40
2023-05-10T22:05:13.385Z,27.40
2023-05-10T22:07:39.822Z,27.38
2023-05-10T22:10:08.048Z,27.39
2023-05-10T22:12:34.415Z,27.36
2023-05-10T22:15:10.349Z,27.36
2023-05-10T22:17:39.807Z,27.32
2023-05-10T22:20:07.929Z,27.27
2023-05-10T22:22:34.288Z,27.24
2023-05-10T22:25:00.896Z,27.22
2023-05-10T22:27:27.246Z,27.20
2023-05-10T22:29:53.617Z,27.19
2023-05-10T22:32:22.354Z,27.18
2023-05-10T22:34:48.723Z,27.14
2023-05-10T22:37:17.706Z,27.11
2023-05-10T22:39:45.598Z,27.09
2023-05-10T22:42:12.187Z,27.05
2023-05-10T22:44:38.711Z,27.00
2023-05-10T22:47:06.488Z,26.96
2023-05-10T22:49:33.472Z,26.91
2023-05-10T22:51:59.899Z,26.85
2023-05-10T22:54:26.255Z,26.80
2023-05-10T22:56:52.658Z,26.74
2023-05-10T22:59:20.127Z,26.68
2023-05-10T23:01:47.030Z,26.62
2023-05-10T23:04:13.436Z,26.56
2023-05-10T23:06:39.898Z,26.48
2023-05-10T23:09:06.444Z,26.43
2023-05-10T23:11:32.845Z,26.39
2023-05-10T23:13:59.217Z,26.35
2023-05-10T23:16:25.679Z,26.31
2023-05-10T23:18:52.119Z,26.28
2023-05-10T23:21:18.499Z,26.23
2023-05-10T23:23:44.883Z,26.22
2023-05-10T23:26:11.331Z,26.18
2023-05-10T23:28:37.891Z,26.15
2023-05-10T23:31:04.289Z,26.12
2023-05-10T23:33:30.640Z,26.10
2023-05-10T23:35:57.052Z,26.07
2023-05-10T23:38:23.454Z,26.06
2023-05-10T23:40:50.759Z,26.03
2023-05-10T23:43:19.556Z,26.01
2023-05-10T23:45:56.457Z,25.99
2023-05-10T23:48:23.431Z,25.97
2023-05-10T23:50:50.620Z,25.94
2023-05-10T23:53:16.982Z,25.92
2023-05-10T23:55:43.420Z,25.89
2023-05-10T23:58:09.808Z,25.88
